Time,TemperatureF,DewpointF,PressureIn,WindDirection,WindDirectionDegrees,WindSpeedMPH,WindSpeedGustMPH,Humidity,HourlyPrecipIn,Conditions,Clouds,dailyrainin,SoftwareType,DateUTC
2013-02-09 00:02:00,-2.0,-6.0,30.42,NE,44,0.0,-999.0,84,-99.99,,,-99.99,,2013-02-09 05:02:00,
2013-02-09 00:12:00,-2.0,-6.0,30.42,NE,44,0.0,-999.0,84,-99.99,,,-99.99,,2013-02-09 05:12:00,
2013-02-09 00:22:00,-2.0,-6.0,30.42,NE,44,0.0,-999.0,84,-99.99,,,-99.99,,2013-02-09 05:22:00,
2013-02-09 00:32:00,-3.0,-7.0,30.42,NE,44,0.0,-999.0,84,-99.99,,,-99.99,,2013-02-09 05:32:00,
2013-02-09 00:42:00,-3.0,-7.0,30.42,NE,44,0.0,-999.0,84,-99.99,,,-99.99,,2013-02-09 05:42:00,
2013-02-09 00:52:00,-3.0,-6.0,30.42,NE,44,0.0,-999.0,85,-99.99,,,-99.99,,2013-02-09 05:52:00,
2013-02-09 01:01:00,-3.0,-7.0,30.42,NE,44,0.0,-999.0,84,-99.99,,,-99.99,,2013-02-09 06:01:00,
2013-02-09 01:11:00,-3.0,-7.0,30.42,NE,44,0.0,-999.0,84,-99.99,,,-99.99,,2013-02-09 06:11:00,
2013-02-09 01:21:00,-3.0,-7.0,30.43,NE,44,0.0,-999.0,84,-99.99,,,-99.99,,2013-02-09 06:21:00,
2013-02-09 01:31:00,-4.0,-7.0,30.43,NE,44,0.0,-999.0,85,-99.99,,,-99.99,,2013-02-09 06:31:00,
2013-02-09 01:42:00,-4.0,-7.0,30.43,NE,44,0.0,-999.0,85,-99.99,,,-99.99,,2013-02-09 06:42:00,
2013-02-09 01:51:00,-4.0,-7.0,30.42,NE,44,0.0,-999.0,85,-99.99,,,-99.99,,2013-02-09 06:51:00,
2013-02-09 02:01:00,-4.0,-7.0,30.42,NE,44,0.0,-999.0,85,-99.99,,,-99.99,,2013-02-09 07:01:00,
2013-02-09 02:11:00,-4.0,-7.0,30.42,NE,44,0.0,-999.0,85,-99.99,,,-99.99,,2013-02-09 07:11:00,
2013-02-09 02:21:00,-4.0,-7.0,30.41,NE,44,0.0,-999.0,85,-99.99,,,-99.99,,2013-02-09 07:21:00,
2013-02-09 02:31:00,-4.0,-7.0,30.41,NE,44,0.0,-999.0,85,-99.99,,,-99.99,,2013-02-09 07:31:00,
2013-02-09 02:42:00,-4.0,-7.0,30.41,NE,44,0.0,-999.0,85,-99.99,,,-99.99,,2013-02-09 07:42:00,
2013-02-09 02:51:00,-3.0,-6.0,30.41,NE,44,0.0,-999.0,85,-99.99,,,-99.99,,2013-02-09 07:51:00,
2013-02-09 03:01:00,-4.0,-8.0,30.42,NE,44,0.0,-999.0,84,-99.99,,,-99.99,,2013-02-09 08:01:00,
2013-02-09 03:11:00,-4.0,-8.0,30.42,NE,44,0.0,-999.0,84,-99.99,,,-99.99,,2013-02-09 08:11:00,
2013-02-09 03:21:00,-4.0,-8.0,30.42,NE,44,0.0,-999.0,84,-99.99,,,-99.99,,2013-02-09 08:21:00,
2013-02-09 03:31:00,-4.0,-7.0,30.42,NE,44,0.0,-999.0,85,-99.99,,,-99.99,,2013-02-09 08:31:00,
2013-02-09 03:42:00,-4.0,-7.0,30.42,NE,44,0.0,-999.0,85,-99.99,,,-99.99,,2013-02-09 08:42:00,
2013-02-09 03:52:00,-4.0,-7.0,30.42,NE,44,0.0,-999.0,85,-99.99,,,-99.99,,2013-02-09 08:52:00,
2013-02-09 04:03:00,-3.0,-6.0,30.42,NE,44,0.0,-999.0,85,-99.99,,,-99.99,,2013-02-09 09:03:00,
2013-02-09 04:11:00,-3.0,-6.0,30.42,NE,44,0.0,-999.0,85,-99.99,,,-99.99,,2013-02-09 09:11:00,
2013-02-09 04:21:00,-4.0,-8.0,30.42,NE,44,0.0,-999.0,84,-99.99,,,-99.99,,2013-02-09 09:21:00,
2013-02-09 04:31:00,-4.0,-7.0,30.41,NE,44,0.0,-999.0,85,-99.99,,,-99.99,,2013-02-09 09:31:00,
2013-02-09 04:42:00,-4.0,-7.0,30.41,NE,44,0.0,-999.0,85,-99.99,,,-99.99,,2013-02-09 09:42:00,
2013-02-09 04:51:00,-3.0,-6.0,30.42,NE,44,0.0,-999.0,85,-99.99,,,-99.99,,2013-02-09 09:51:00,
2013-02-09 05:01:00,-3.0,-6.0,30.41,NE,44,0.0,-999.0,86,-99.99,,,-99.99,,2013-02-09 10:01:00,
2013-02-09 05:11:00,-3.0,-6.0,30.41,NE,44,0.0,-999.0,86,-99.99,,,-99.99,,2013-02-09 10:11:00,
2013-02-09 05:21:00,-3.0,-6.0,30.41,NE,44,0.0,-999.0,86,-99.99,,,-99.99,,2013-02-09 10:21:00,
2013-02-09 05:32:00,-2.0,-5.0,30.40,NE,45,0.0,-999.0,87,-99.99,,,-99.99,,2013-02-09 10:32:00,
2013-02-09 05:42:00,-2.0,-5.0,30.40,NE,45,0.0,-999.0,87,-99.99,,,-99.99,,2013-02-09 10:42:00,
2013-02-09 05:51:00,-1.0,-3.0,30.40,SE,141,0.0,-999.0,89,-99.99,,,-99.99,,2013-02-09 10:51:00,
2013-02-09 06:01:00,1.0,-1.0,30.40,South,186,2.0,-999.0,92,-99.99,,,-99.99,,2013-02-09 11:01:00,
2013-02-09 06:11:00,1.0,-1.0,30.40,South,186,2.0,-999.0,92,-99.99,,,-99.99,,2013-02-09 11:11:00,
2013-02-09 06:22:00,4.0,2.0,30.38,South,188,2.0,-999.0,91,-99.99,,,-99.99,,2013-02-09 11:22:00,
2013-02-09 06:32:00,3.0,0.0,30.38,South,190,1.0,-999.0,87,-99.99,,,-99.99,,2013-02-09 11:32:00,
2013-02-09 06:41:00,3.0,0.0,30.38,South,190,1.0,-999.0,87,-99.99,,,-99.99,,2013-02-09 11:41:00,
2013-02-09 06:52:00,3.0,0.0,30.38,South,190,1.0,-999.0,87,-99.99,,,-99.99,,2013-02-09 11:52:00,
2013-02-09 07:02:00,7.0,4.0,30.38,SSW,192,4.0,-999.0,89,-99.99,,,-99.99,,2013-02-09 12:02:00,
2013-02-09 07:21:00,7.0,4.0,30.38,South,186,4.0,-999.0,89,-99.99,,,-99.99,,2013-02-09 12:21:00,
2013-02-09 07:32:00,8.0,5.0,30.38,SSW,198,4.0,-999.0,89,-99.99,,,-99.99,,2013-02-09 12:32:00,
2013-02-09 07:52:00,8.0,5.0,30.38,SSW,196,4.0,-999.0,88,-99.99,,,-99.99,,2013-02-09 12:52:00,
2013-02-09 08:02:00,8.0,5.0,30.37,SSW,196,4.0,-999.0,88,-99.99,,,-99.99,,2013-02-09 13:02:00,
2013-02-09 08:22:00,8.0,5.0,30.36,SSW,195,3.0,-999.0,87,-99.99,,,-99.99,,2013-02-09 13:22:00,
2013-02-09 08:32:00,7.0,4.0,30.36,SSW,197,2.0,-999.0,88,-99.99,,,-99.99,,2013-02-09 13:32:00,
2013-02-09 08:42:00,7.0,4.0,30.36,SSW,197,2.0,-999.0,88,-99.99,,,-99.99,,2013-02-09 13:42:00,
2013-02-09 08:52:00,8.0,5.0,30.36,SSW,194,2.0,-999.0,88,-99.99,,,-99.99,,2013-02-09 13:52:00,
2013-02-09 09:01:00,9.0,6.0,30.35,South,188,3.0,-999.0,88,-99.99,,,-99.99,,2013-02-09 14:01:00,
2013-02-09 09:21:00,9.0,6.0,30.35,South,190,4.0,-999.0,89,-99.99,,,-99.99,,2013-02-09 14:21:00,
2013-02-09 09:32:00,10.0,7.0,30.36,SSW,196,6.0,-999.0,88,-99.99,,,-99.99,,2013-02-09 14:32:00,
2013-02-09 09:42:00,10.0,7.0,30.36,SSW,196,6.0,-999.0,88,-99.99,,,-99.99,,2013-02-09 14:42:00,
2013-02-09 09:52:00,11.0,8.0,30.36,SSW,193,5.0,-999.0,88,-99.99,,,-99.99,,2013-02-09 14:52:00,
2013-02-09 10:02:00,12.0,9.0,30.36,SSW,211,4.0,-999.0,88,-99.99,,,-99.99,,2013-02-09 15:02:00,
2013-02-09 10:21:00,13.0,10.0,30.35,SSW,199,7.0,-999.0,87,-99.99,,,-99.99,,2013-02-09 15:21:00,
2013-02-09 10:32:00,14.0,11.0,30.35,SSW,207,6.0,-999.0,88,-99.99,,,-99.99,,2013-02-09 15:32:00,
2013-02-09 10:42:00,14.0,11.0,30.35,SSW,207,6.0,-999.0,88,-99.99,,,-99.99,,2013-02-09 15:42:00,
2013-02-09 10:51:00,16.0,13.0,30.33,South,191,7.0,-999.0,86,-99.99,,,-99.99,,2013-02-09 15:51:00,
2013-02-09 11:01:00,16.0,13.0,30.34,South,191,7.0,-999.0,87,-99.99,,,-99.99,,2013-02-09 16:01:00,
2013-02-09 11:11:00,16.0,13.0,30.34,South,191,7.0,-999.0,87,-99.99,,,-99.99,,2013-02-09 16:11:00,
2013-02-09 11:22:00,17.0,14.0,30.34,SSW,193,7.0,-999.0,86,-99.99,,,-99.99,,2013-02-09 16:22:00,
2013-02-09 11:31:00,17.0,14.0,30.33,SW,225,8.0,-999.0,86,-99.99,,,-99.99,,2013-02-09 16:31:00,
2013-02-09 11:42:00,17.0,14.0,30.33,SW,225,8.0,-999.0,86,-99.99,,,-99.99,,2013-02-09 16:42:00,
2013-02-09 11:51:00,17.0,14.0,30.33,SW,225,8.0,-999.0,86,-99.99,,,-99.99,,2013-02-09 16:51:00,
2013-02-09 12:01:00,18.0,15.0,30.32,SSW,204,7.0,-999.0,87,-99.99,,,-99.99,,2013-02-09 17:01:00,
2013-02-09 12:11:00,18.0,15.0,30.32,SSW,204,7.0,-999.0,87,-99.99,,,-99.99,,2013-02-09 17:11:00,
2013-02-09 12:21:00,18.0,15.0,30.32,SSW,198,9.0,-999.0,86,-99.99,,,-99.99,,2013-02-09 17:21:00,
2013-02-09 12:32:00,18.0,15.0,30.31,South,175,10.0,-999.0,87,-99.99,,,-99.99,,2013-02-09 17:32:00,
2013-02-09 12:42:00,18.0,15.0,30.31,South,175,10.0,-999.0,87,-99.99,,,-99.99,,2013-02-09 17:42:00,
2013-02-09 12:52:00,19.0,16.0,30.30,SSW,201,9.0,-999.0,86,-99.99,,,-99.99,,2013-02-09 17:52:00,
2013-02-09 13:02:00,20.0,16.0,30.29,SW,225,11.0,-999.0,86,-99.99,,,-99.99,,2013-02-09 18:02:00,
2013-02-09 13:12:00,20.0,16.0,30.29,SW,225,11.0,-999.0,86,-99.99,,,-99.99,,2013-02-09 18:12:00,
2013-02-09 13:23:00,20.0,17.0,30.28,SSW,209,12.0,-999.0,87,-99.99,,,-99.99,,2013-02-09 18:23:00,
2013-02-09 13:32:00,21.0,17.0,30.28,SSW,194,8.0,-999.0,86,-99.99,,,-99.99,,2013-02-09 18:32:00,
2013-02-09 13:42:00,21.0,17.0,30.28,SSW,194,8.0,-999.0,86,-99.99,,,-99.99,,2013-02-09 18:42:00,
2013-02-09 13:51:00,21.0,17.0,30.27,SSW,206,10.0,-999.0,86,-99.99,,,-99.99,,2013-02-09 18:51:00,
2013-02-09 14:01:00,22.0,18.0,30.27,South,189,10.0,-999.0,84,-99.99,,,-99.99,,2013-02-09 19:01:00,
2013-02-09 14:11:00,22.0,18.0,30.27,South,189,10.0,-999.0,84,-99.99,,,-99.99,,2013-02-09 19:11:00,
2013-02-09 14:22:00,22.0,18.0,30.26,SSW,197,9.0,-999.0,83,-99.99,,,-99.99,,2013-02-09 19:22:00,
2013-02-09 14:32:00,23.0,18.0,30.25,SSW,205,9.0,-999.0,82,-99.99,,,-99.99,,2013-02-09 19:32:00,
2013-02-09 14:42:00,23.0,18.0,30.25,SSW,205,9.0,-999.0,82,-99.99,,,-99.99,,2013-02-09 19:42:00,
2013-02-09 14:52:00,23.0,18.0,30.24,SSW,198,12.0,-999.0,80,-99.99,,,-99.99,,2013-02-09 19:52:00,
2013-02-09 15:01:00,23.0,17.0,30.23,South,188,11.0,-999.0,79,-99.99,,,-99.99,,2013-02-09 20:01:00,
2013-02-09 15:11:00,23.0,17.0,30.23,South,188,11.0,-999.0,79,-99.99,,,-99.99,,2013-02-09 20:11:00,
2013-02-09 15:21:00,23.0,18.0,30.22,South,186,10.0,-999.0,80,-99.99,,,-99.99,,2013-02-09 20:21:00,
2013-02-09 15:32:00,23.0,18.0,30.21,SSW,205,9.0,-999.0,80,-99.99,,,-99.99,,2013-02-09 20:32:00,
2013-02-09 15:42:00,23.0,18.0,30.21,SSW,205,9.0,-999.0,80,-99.99,,,-99.99,,2013-02-09 20:42:00,
2013-02-09 15:52:00,23.0,17.0,30.21,SSW,198,9.0,-999.0,79,-99.99,,,-99.99,,2013-02-09 20:52:00,
2013-02-09 16:02:00,23.0,17.0,30.21,South,189,9.0,-999.0,79,-99.99,,,-99.99,,2013-02-09 21:02:00,
2013-02-09 16:11:00,23.0,17.0,30.21,South,189,9.0,-999.0,79,-99.99,,,-99.99,,2013-02-09 21:11:00,
2013-02-09 16:21:00,24.0,18.0,30.20,South,180,8.0,-999.0,78,-99.99,,,-99.99,,2013-02-09 21:21:00,
2013-02-09 16:32:00,25.0,18.0,30.20,South,190,9.0,-999.0,75,-99.99,,,-99.99,,2013-02-09 21:32:00,
2013-02-09 16:42:00,25.0,18.0,30.20,South,190,9.0,-999.0,75,-99.99,,,-99.99,,2013-02-09 21:42:00,
2013-02-09 16:52:00,24.0,18.0,30.20,SSW,205,11.0,-999.0,76,-99.99,,,-99.99,,2013-02-09 21:52:00,
2013-02-09 17:01:00,24.0,18.0,30.20,SSW,199,9.0,-999.0,76,-99.99,,,-99.99,,2013-02-09 22:01:00,
2013-02-09 17:11:00,24.0,18.0,30.20,SSW,199,9.0,-999.0,76,-99.99,,,-99.99,,2013-02-09 22:11:00,
2013-02-09 17:21:00,24.0,18.0,30.19,South,184,9.0,-999.0,76,-99.99,,,-99.99,,2013-02-09 22:21:00,
2013-02-09 17:32:00,24.0,18.0,30.19,South,175,10.0,-999.0,77,-99.99,,,-99.99,,2013-02-09 22:32:00,
2013-02-09 17:42:00,24.0,18.0,30.19,South,175,10.0,-999.0,77,-99.99,,,-99.99,,2013-02-09 22:42:00,
2013-02-09 17:52:00,23.0,17.0,30.18,SSW,192,7.0,-999.0,79,-99.99,,,-99.99,,2013-02-09 22:52:00,
2013-02-09 18:01:00,23.0,18.0,30.18,SW,219,9.0,-999.0,80,-99.99,,,-99.99,,2013-02-09 23:01:00,
2013-02-09 18:11:00,23.0,18.0,30.18,SW,219,9.0,-999.0,80,-99.99,,,-99.99,,2013-02-09 23:11:00,
2013-02-09 18:21:00,22.0,17.0,30.18,South,172,9.0,-999.0,81,-99.99,,,-99.99,,2013-02-09 23:21:00,
2013-02-09 18:32:00,22.0,17.0,30.17,South,184,10.0,-999.0,82,-99.99,,,-99.99,,2013-02-09 23:32:00,
2013-02-09 18:42:00,22.0,17.0,30.17,South,184,10.0,-999.0,82,-99.99,,,-99.99,,2013-02-09 23:42:00,
2013-02-09 18:52:00,21.0,17.0,30.18,SSW,208,10.0,-999.0,84,-99.99,,,-99.99,,2013-02-09 23:52:00,
2013-02-09 19:02:00,21.0,17.0,30.18,SSE,160,7.0,-999.0,85,-99.99,,,-99.99,,2013-02-10 00:02:00,
2013-02-09 19:12:00,21.0,17.0,30.18,SSE,160,7.0,-999.0,85,-99.99,,,-99.99,,2013-02-10 00:12:00,
2013-02-09 19:21:00,21.0,17.0,30.19,SSW,197,7.0,-999.0,86,-99.99,,,-99.99,,2013-02-10 00:21:00,
2013-02-09 19:32:00,21.0,17.0,30.19,South,186,7.0,-999.0,86,-99.99,,,-99.99,,2013-02-10 00:32:00,
2013-02-09 19:42:00,21.0,17.0,30.19,South,186,7.0,-999.0,86,-99.99,,,-99.99,,2013-02-10 00:42:00,
2013-02-09 19:51:00,21.0,18.0,30.18,SSW,196,7.0,-999.0,87,-99.99,,,-99.99,,2013-02-10 00:51:00,
2013-02-09 20:01:00,21.0,18.0,30.18,South,187,6.0,-999.0,87,-99.99,,,-99.99,,2013-02-10 01:01:00,
2013-02-09 20:12:00,21.0,18.0,30.18,South,187,6.0,-999.0,87,-99.99,,,-99.99,,2013-02-10 01:12:00,
2013-02-09 20:21:00,20.0,17.0,30.18,SSW,197,7.0,-999.0,87,-99.99,,,-99.99,,2013-02-10 01:21:00,
2013-02-09 20:32:00,20.0,17.0,30.18,SSW,192,6.0,-999.0,88,-99.99,,,-99.99,,2013-02-10 01:32:00,
2013-02-09 20:42:00,20.0,17.0,30.18,SSW,192,6.0,-999.0,88,-99.99,,,-99.99,,2013-02-10 01:42:00,
2013-02-09 20:51:00,20.0,17.0,30.18,South,182,6.0,-999.0,88,-99.99,,,-99.99,,2013-02-10 01:51:00,
2013-02-09 21:01:00,20.0,17.0,30.18,SSW,206,6.0,-999.0,89,-99.99,,,-99.99,,2013-02-10 02:01:00,
2013-02-09 21:11:00,20.0,17.0,30.18,SSW,206,6.0,-999.0,89,-99.99,,,-99.99,,2013-02-10 02:11:00,
2013-02-09 21:22:00,20.0,17.0,30.18,SSW,195,6.0,-999.0,89,-99.99,,,-99.99,,2013-02-10 02:22:00,
2013-02-09 21:32:00,20.0,18.0,30.17,SSW,207,5.0,-999.0,90,-99.99,,,-99.99,,2013-02-10 02:32:00,
2013-02-09 21:42:00,20.0,18.0,30.17,SSW,207,5.0,-999.0,90,-99.99,,,-99.99,,2013-02-10 02:42:00,
2013-02-09 21:52:00,20.0,18.0,30.17,SW,214,5.0,-999.0,90,-99.99,,,-99.99,,2013-02-10 02:52:00,
2013-02-09 22:01:00,20.0,18.0,30.17,South,188,4.0,-999.0,90,-99.99,,,-99.99,,2013-02-10 03:01:00,
2013-02-09 22:11:00,20.0,18.0,30.17,South,188,4.0,-999.0,90,-99.99,,,-99.99,,2013-02-10 03:11:00,
2013-02-09 22:21:00,20.0,18.0,30.17,South,188,4.0,-999.0,90,-99.99,,,-99.99,,2013-02-10 03:21:00,
2013-02-09 22:32:00,20.0,18.0,30.17,SSW,197,5.0,-999.0,90,-99.99,,,-99.99,,2013-02-10 03:32:00,
2013-02-09 22:42:00,20.0,18.0,30.17,SSW,197,5.0,-999.0,90,-99.99,,,-99.99,,2013-02-10 03:42:00,
2013-02-09 22:52:00,20.0,18.0,30.17,SW,216,4.0,-999.0,91,-99.99,,,-99.99,,2013-02-10 03:52:00,
2013-02-09 23:01:00,20.0,18.0,30.17,SSE,167,4.0,-999.0,91,-99.99,,,-99.99,,2013-02-10 04:01:00,
2013-02-09 23:11:00,20.0,18.0,30.17,SSE,167,4.0,-999.0,91,-99.99,,,-99.99,,2013-02-10 04:11:00,
2013-02-09 23:21:00,20.0,18.0,30.17,SSW,203,3.0,-999.0,91,-99.99,,,-99.99,,2013-02-10 04:21:00,
2013-02-09 23:32:00,20.0,18.0,30.17,SW,216,4.0,-999.0,91,-99.99,,,-99.99,,2013-02-10 04:32:00,
2013-02-09 23:42:00,20.0,18.0,30.17,SW,216,4.0,-999.0,91,-99.99,,,-99.99,,2013-02-10 04:42:00,
2013-02-09 23:52:00,20.0,18.0,30.17,SSW,213,3.0,-999.0,91,-99.99,,,-99.99,,2013-02-10 04:52:00,